Time;durP1;ratioP1;P1;durP2;ratioP2;P2;SDS_P1;SDS_P2;PMS_P1;PMS_P2;Temp;Humidity;BMP_temperature;BMP_pressure;BME280_temperature;BME280_humidity;BME280_pressure;Samples;Min_cycle;Max_cycle;Signal;HPM_P1;HPM_P2
2023/12/20 00:01:19;;;;;;;3.33;1.67;;;4.80;99.90;;;;;;4996129;28;20042;-73
2023/12/20 00:03:44;;;;;;;2.72;2.15;;;4.90;99.90;;;;;;4995339;28;20130;-73
2023/12/20 00:06:10;;;;;;;2.45;2.15;;;4.90;99.90;;;;;;4999705;28;20077;-72
2023/12/20 00:08:36;;;;;;;2.42;2.22;;;4.90;99.90;;;;;;5000356;28;20017;-73
2023/12/20 00:11:01;;;;;;;2.85;2.60;;;4.90;99.90;;;;;;4995942;28;20022;-73
2023/12/20 00:13:27;;;;;;;2.72;2.25;;;4.90;99.90;;;;;;4994530;28;20403;-73
2023/12/20 00:15:53;;;;;;;3.25;2.25;;;4.90;99.90;;;;;;5000022;28;20062;-74
2023/12/20 00:18:18;;;;;;;2.45;2.17;;;4.90;99.90;;;;;;4997674;28;20102;-74
2023/12/20 00:20:44;;;;;;;3.13;2.30;;;4.80;99.90;;;;;;4994045;28;20073;-74
2023/12/20 00:23:10;;;;;;;2.75;2.05;;;4.80;99.90;;;;;;4999224;28;20459;-73
2023/12/20 00:25:35;;;;;;;2.92;2.10;;;4.90;99.90;;;;;;4998152;28;20064;-74
2023/12/20 00:28:02;;;;;;;3.35;3.05;;;4.90;99.90;;;;;;4996577;28;20030;-73
2023/12/20 00:30:28;;;;;;;2.33;2.13;;;4.90;99.90;;;;;;4996365;28;20031;-74
2023/12/20 00:32:53;;;;;;;2.67;2.10;;;4.90;99.90;;;;;;4999927;28;20038;-75
2023/12/20 00:35:19;;;;;;;3.30;2.40;;;4.90;99.90;;;;;;4994683;28;20034;-74
2023/12/20 00:37:45;;;;;;;3.42;2.30;;;4.90;99.90;;;;;;4999279;28;20090;-74
2023/12/20 00:40:11;;;;;;;2.70;2.28;;;4.90;99.90;;;;;;4998151;28;20065;-74
2023/12/20 00:42:36;;;;;;;2.80;2.50;;;4.90;99.90;;;;;;4993984;28;20049;-75
2023/12/20 00:45:04;;;;;;;3.28;2.75;;;4.90;99.90;;;;;;4997146;28;20030;-75
2023/12/20 00:47:31;;;;;;;3.90;2.70;;;5.00;99.90;;;;;;4996457;28;20029;-74
2023/12/20 00:49:57;;;;;;;5.93;3.60;;;5.00;99.90;;;;;;4998106;28;20679;-75
2023/12/20 00:52:23;;;;;;;5.18;3.38;;;5.00;99.90;;;;;;4996641;28;20034;-74
2023/12/20 00:54:49;;;;;;;2.30;2.10;;;5.00;99.90;;;;;;4994546;28;20069;-74
2023/12/20 00:57:15;;;;;;;2.22;1.77;;;5.00;99.90;;;;;;4998255;28;20058;-73
2023/12/20 00:59:40;;;;;;;2.35;1.75;;;5.00;99.90;;;;;;4998963;28;20045;-74
2023/12/20 01:02:06;;;;;;;2.15;2.00;;;5.00;99.90;;;;;;4995583;28;20048;-73
2023/12/20 01:04:31;;;;;;;2.33;1.90;;;5.00;99.90;;;;;;4999487;28;20037;-73
2023/12/20 01:06:57;;;;;;;2.03;1.83;;;5.00;99.90;;;;;;4993432;28;20018;-73
2023/12/20 01:09:28;;;;;;;3.22;1.95;;;5.00;99.90;;;;;;4995062;28;20125;-73
2023/12/20 01:11:54;;;;;;;2.03;1.65;;;5.00;99.90;;;;;;4992842;28;20034;-73
2023/12/20 01:14:20;;;;;;;2.15;1.90;;;5.00;99.90;;;;;;4993559;28;20053;-74
2023/12/20 01:16:45;;;;;;;2.08;1.88;;;5.00;99.90;;;;;;4991743;28;20472;-74
2023/12/20 01:19:11;;;;;;;2.00;1.52;;;5.00;99.90;;;;;;4992306;28;20536;-73
2023/12/20 01:21:37;;;;;;;2.13;1.80;;;5.00;99.90;;;;;;4993405;28;20037;-74
2023/12/20 01:24:02;;;;;;;1.85;1.75;;;5.00;99.90;;;;;;4998529;28;20064;-74
2023/12/20 01:26:28;;;;;;;2.20;1.75;;;5.00;99.90;;;;;;4991985;28;20050;-74
2023/12/20 01:28:53;;;;;;;1.80;1.70;;;5.00;99.90;;;;;;4992116;28;20915;-73
2023/12/20 01:31:19;;;;;;;1.67;1.50;;;4.90;99.90;;;;;;4993086;28;20039;-74
2023/12/20 01:33:45;;;;;;;1.73;1.63;;;5.00;99.90;;;;;;4996711;28;20057;-73
2023/12/20 01:36:11;;;;;;;2.40;1.92;;;4.90;99.90;;;;;;4999287;28;20405;-73
2023/12/20 01:38:37;;;;;;;1.60;1.50;;;4.90;99.90;;;;;;4976448;28;20034;-74
2023/12/20 01:41:02;;;;;;;3.47;1.55;;;4.90;99.90;;;;;;4999754;28;20041;-72
2023/12/20 01:43:29;;;;;;;1.67;1.58;;;4.80;99.90;;;;;;4992194;28;20119;-72
2023/12/20 01:45:56;;;;;;;2.17;1.73;;;4.80;99.90;;;;;;4992052;28;20042;-73
2023/12/20 01:48:23;;;;;;;2.07;1.83;;;4.70;99.90;;;;;;4998181;28;20041;-72
2023/12/20 01:50:49;;;;;;;2.08;1.70;;;4.70;99.90;;;;;;4992252;28;20301;-71
2023/12/20 01:53:15;;;;;;;1.70;1.60;;;4.70;99.90;;;;;;4990657;28;20041;-71
2023/12/20 01:55:41;;;;;;;1.95;1.80;;;4.70;99.90;;;;;;4989203;28;20026;-73
2023/12/20 01:58:10;;;;;;;1.60;1.50;;;4.70;99.90;;;;;;4990529;28;20050;-73
2023/12/20 02:00:37;;;;;;;2.42;2.28;;;4.70;99.90;;;;;;4992439;28;20062;-75
2023/12/20 02:03:05;;;;;;;1.73;1.63;;;4.80;99.90;;;;;;5017960;28;20057;-76
2023/12/20 02:05:32;;;;;;;1.90;1.80;;;4.70;99.90;;;;;;5020928;28;20034;-76
2023/12/20 02:07:57;;;;;;;1.42;1.33;;;4.80;99.90;;;;;;5021270;28;20030;-76
2023/12/20 02:10:24;;;;;;;1.70;1.60;;;4.70;99.90;;;;;;5014539;28;20039;-75
2023/12/20 02:12:50;;;;;;;1.73;1.63;;;4.80;99.90;;;;;;5017665;28;20032;-76
2023/12/20 02:15:15;;;;;;;1.83;1.73;;;4.80;99.90;;;;;;5018973;28;20092;-76
2023/12/20 02:17:41;;;;;;;2.05;1.90;;;4.80;99.90;;;;;;5015319;28;20078;-76
2023/12/20 02:20:07;;;;;;;1.55;1.42;;;4.80;99.90;;;;;;5019337;28;20018;-76
2023/12/20 02:22:32;;;;;;;2.35;1.85;;;4.80;99.90;;;;;;5019923;28;20077;-76
2023/12/20 02:24:58;;;;;;;1.50;1.40;;;4.80;99.90;;;;;;5020817;28;20404;-77
2023/12/20 02:27:24;;;;;;;3.03;1.60;;;4.90;99.90;;;;;;5020262;28;20056;-75
2023/12/20 02:29:50;;;;;;;1.60;1.50;;;4.90;99.90;;;;;;5020947;28;20041;-76
2023/12/20 02:32:20;;;;;;;1.73;1.63;;;4.90;99.90;;;;;;5022884;28;20125;-75
2023/12/20 02:34:47;;;;;;;1.50;1.40;;;4.90;99.90;;;;;;5025380;28;20030;-76
2023/12/20 02:37:13;;;;;;;2.30;2.10;;;4.90;99.90;;;;;;5024782;28;20038;-74
2023/12/20 02:39:38;;;;;;;2.03;1.92;;;4.90;99.90;;;;;;5022127;28;20069;-76
2023/12/20 02:42:04;;;;;;;1.67;1.58;;;5.00;99.90;;;;;;5023057;28;20104;-76
2023/12/20 02:44:30;;;;;;;1.80;1.55;;;4.90;99.90;;;;;;5019101;28;20034;-75
2023/12/20 02:46:55;;;;;;;3.38;1.95;;;4.90;99.90;;;;;;5020909;28;20056;-76
2023/12/20 02:49:21;;;;;;;1.63;1.52;;;5.00;99.90;;;;;;5023845;28;20042;-75
2023/12/20 02:51:47;;;;;;;2.47;2.28;;;5.00;99.90;;;;;;5027446;28;20061;-76
2023/12/20 02:54:12;;;;;;;1.73;1.63;;;5.00;99.90;;;;;;5030450;28;20070;-75
2023/12/20 02:56:38;;;;;;;2.05;1.60;;;5.00;99.90;;;;;;5024146;28;20555;-76
2023/12/20 02:59:05;;;;;;;2.00;1.90;;;4.90;99.90;;;;;;5019875;28;20061;-76
2023/12/20 03:01:31;;;;;;;1.90;1.80;;;5.00;99.90;;;;;;5016520;28;20046;-76
2023/12/20 03:03:57;;;;;;;2.20;1.73;;;4.90;99.90;;;;;;5021286;28;20030;-76
2023/12/20 03:06:22;;;;;;;1.67;1.52;;;4.90;99.90;;;;;;5020929;28;20037;-75
2023/12/20 03:08:48;;;;;;;1.60;1.50;;;4.90;99.90;;;;;;5016526;28;20399;-76
2023/12/20 03:11:13;;;;;;;1.55;1.45;;;4.80;99.90;;;;;;5014312;28;20046;-74
2023/12/20 03:13:39;;;;;;;3.15;1.98;;;4.80;99.90;;;;;;5010920;28;20084;-73
2023/12/20 03:16:12;;;;;;;1.85;1.55;;;4.80;99.90;;;;;;5012257;28;20116;-71
2023/12/20 03:18:38;;;;;;;3.70;2.30;;;4.70;99.90;;;;;;5009764;28;20049;-71
2023/12/20 03:21:04;;;;;;;2.90;2.65;;;4.70;99.90;;;;;;5011810;28;20030;-72
2023/12/20 03:23:32;;;;;;;1.55;1.45;;;4.70;99.90;;;;;;5010838;28;20503;-72
2023/12/20 03:25:58;;;;;;;1.80;1.70;;;4.70;99.90;;;;;;5013394;28;20036;-72
2023/12/20 03:28:23;;;;;;;3.85;1.70;;;4.70;99.90;;;;;;5012536;28;20101;-72
2023/12/20 03:30:49;;;;;;;1.73;1.60;;;4.60;99.90;;;;;;5012743;28;20034;-72
2023/12/20 03:33:15;;;;;;;4.38;1.83;;;4.70;99.90;;;;;;5014232;28;20034;-70
2023/12/20 03:35:41;;;;;;;2.20;2.00;;;4.60;99.90;;;;;;5012271;28;20038;-71
2023/12/20 03:38:07;;;;;;;3.05;1.85;;;4.60;99.90;;;;;;5013178;28;20061;-72
2023/12/20 03:40:33;;;;;;;2.05;1.95;;;4.70;99.90;;;;;;5013283;28;20088;-71
2023/12/20 03:42:58;;;;;;;2.88;2.00;;;4.60;99.90;;;;;;5015226;28;20053;-70
2023/12/20 03:45:24;;;;;;;1.95;1.85;;;4.70;99.90;;;;;;5016433;28;20041;-72
2023/12/20 03:47:54;;;;;;;1.92;1.65;;;4.60;99.90;;;;;;5015467;28;20495;-71
2023/12/20 03:50:22;;;;;;;2.92;2.63;;;4.60;99.90;;;;;;5015553;28;20031;-71
2023/12/20 03:52:47;;;;;;;1.77;1.67;;;4.60;99.90;;;;;;5010920;28;20030;-72
2023/12/20 03:55:13;;;;;;;2.22;2.03;;;4.60;99.90;;;;;;5017314;28;20721;-71
2023/12/20 03:57:38;;;;;;;2.53;1.83;;;4.60;99.90;;;;;;5011053;28;20046;-70
2023/12/20 04:00:09;;;;;;;1.92;1.80;;;4.60;99.90;;;;;;5013983;28;20040;-71
2023/12/20 04:02:34;;;;;;;2.17;1.92;;;4.60;99.90;;;;;;5015512;28;20041;-71
2023/12/20 04:05:00;;;;;;;2.40;2.20;;;4.60;99.90;;;;;;5014995;28;20030;-71
2023/12/20 04:07:25;;;;;;;5.55;2.45;;;4.60;99.90;;;;;;5011036;28;20045;-71
2023/12/20 04:09:51;;;;;;;2.13;1.92;;;4.60;99.90;;;;;;5012115;28;20399;-69
2023/12/20 04:12:17;;;;;;;2.17;1.98;;;4.60;99.90;;;;;;5012174;28;20026;-70
2023/12/20 04:14:42;;;;;;;3.22;2.28;;;4.60;99.90;;;;;;5016215;28;20061;-70
2023/12/20 04:17:08;;;;;;;2.03;1.90;;;4.60;99.90;;;;;;5015530;28;20038;-71
2023/12/20 04:19:34;;;;;;;2.42;2.20;;;4.60;99.90;;;;;;5008051;28;20019;-71
2023/12/20 04:21:59;;;;;;;1.73;1.35;;;4.60;99.90;;;;;;5024476;28;20172;-70
2023/12/20 04:24:25;;;;;;;3.97;2.10;;;4.60;99.90;;;;;;5013040;28;20080;-71
2023/12/20 04:26:50;;;;;;;2.17;1.98;;;4.60;99.90;;;;;;5012384;28;20030;-71
2023/12/20 04:29:16;;;;;;;2.13;1.92;;;4.70;99.90;;;;;;5018056;28;20047;-71
2023/12/20 04:31:41;;;;;;;2.88;1.98;;;4.60;99.90;;;;;;5014366;28;20053;-71
2023/12/20 04:34:07;;;;;;;2.42;2.22;;;4.60;99.90;;;;;;5016975;28;20034;-71
2023/12/20 04:36:33;;;;;;;2.30;1.98;;;4.70;99.90;;;;;;5010703;28;20065;-71
2023/12/20 04:38:59;;;;;;;1.95;1.85;;;4.70;99.90;;;;;;5010987;28;20093;-70
2023/12/20 04:41:25;;;;;;;2.40;2.20;;;4.60;99.90;;;;;;5010227;28;20117;-69
2023/12/20 04:43:51;;;;;;;2.42;2.22;;;4.60;99.90;;;;;;5015996;28;20056;-71
2023/12/20 04:46:16;;;;;;;3.38;2.50;;;4.60;99.90;;;;;;5010775;28;20018;-70
2023/12/20 04:48:42;;;;;;;2.50;2.30;;;4.60;99.90;;;;;;5014138;28;20065;-71
2023/12/20 04:51:07;;;;;;;2.95;2.38;;;4.60;99.90;;;;;;5012924;28;20133;-71
2023/12/20 04:53:33;;;;;;;2.33;2.13;;;4.60;99.90;;;;;;5015715;28;20036;-72
2023/12/20 04:55:59;;;;;;;2.33;2.13;;;4.60;99.90;;;;;;5011382;28;20026;-72
2023/12/20 04:58:25;;;;;;;2.20;1.95;;;4.60;99.90;;;;;;5012541;28;20125;-72
2023/12/20 05:00:50;;;;;;;2.78;2.45;;;4.60;99.90;;;;;;5015600;28;20058;-71
2023/12/20 05:03:16;;;;;;;3.03;2.42;;;4.60;99.90;;;;;;5008245;28;20040;-70
2023/12/20 05:05:42;;;;;;;3.05;2.38;;;4.60;99.90;;;;;;5011219;28;20026;-71
2023/12/20 05:08:07;;;;;;;1.88;1.70;;;4.60;99.90;;;;;;5015831;28;20468;-70
2023/12/20 05:10:33;;;;;;;2.53;2.33;;;4.60;99.90;;;;;;5011692;28;20093;-69
2023/12/20 05:12:58;;;;;;;2.95;2.13;;;4.70;99.90;;;;;;5006730;28;20057;-70
2023/12/20 05:15:24;;;;;;;2.20;2.00;;;4.60;99.90;;;;;;5014964;28;20054;-70
2023/12/20 05:17:50;;;;;;;2.90;2.30;;;4.70;99.90;;;;;;5009988;28;20072;-70
2023/12/20 05:20:15;;;;;;;2.33;2.13;;;4.70;99.90;;;;;;5011537;28;20042;-70
2023/12/20 05:22:41;;;;;;;5.00;2.83;;;4.60;99.90;;;;;;5009706;28;20041;-70
2023/12/20 05:25:07;;;;;;;1.85;1.48;;;4.70;99.90;;;;;;5011164;28;20029;-70
2023/12/20 05:27:33;;;;;;;2.28;2.08;;;4.70;99.90;;;;;;5009958;28;20400;-71
2023/12/20 05:29:58;;;;;;;2.75;2.38;;;4.70;99.90;;;;;;5009293;28;20042;-71
2023/12/20 05:32:25;;;;;;;2.40;2.20;;;4.70;99.90;;;;;;5015215;28;20026;-75
2023/12/20 05:34:50;;;;;;;2.13;1.80;;;4.70;99.90;;;;;;5017899;28;20042;-73
2023/12/20 05:37:16;;;;;;;1.88;1.77;;;4.70;99.90;;;;;;5017440;28;20060;-74
2023/12/20 05:39:41;;;;;;;2.40;2.00;;;4.70;99.90;;;;;;5014557;28;20029;-75
2023/12/20 05:42:07;;;;;;;2.75;2.40;;;4.70;99.90;;;;;;5017570;28;20026;-74
2023/12/20 05:44:32;;;;;;;2.50;1.83;;;4.70;99.90;;;;;;5018069;28;20025;-75
2023/12/20 05:46:58;;;;;;;2.95;2.17;;;4.70;99.90;;;;;;5012077;28;20034;-75
2023/12/20 05:49:24;;;;;;;2.00;1.90;;;4.70;99.90;;;;;;5012439;28;20041;-75
2023/12/20 05:51:51;;;;;;;2.13;1.90;;;4.70;99.90;;;;;;5017958;28;20558;-74
2023/12/20 05:54:16;;;;;;;2.17;1.98;;;4.70;99.90;;;;;;5020359;28;20041;-75
2023/12/20 05:56:42;;;;;;;1.80;1.70;;;4.70;99.90;;;;;;5021468;28;20033;-74
2023/12/20 05:59:08;;;;;;;2.42;1.60;;;4.70;99.90;;;;;;5018656;28;20037;-75
2023/12/20 06:01:33;;;;;;;1.70;1.60;;;4.70;99.90;;;;;;5013474;28;20049;-75
2023/12/20 06:03:59;;;;;;;2.00;1.90;;;4.60;99.90;;;;;;5014279;28;20033;-74
2023/12/20 06:06:24;;;;;;;5.00;2.15;;;4.60;99.90;;;;;;5019587;28;20041;-74
2023/12/20 06:08:50;;;;;;;2.97;2.40;;;4.60;99.90;;;;;;5017584;28;20048;-74
2023/12/20 06:11:16;;;;;;;3.03;1.90;;;4.60;99.90;;;;;;5014109;28;20049;-75
2023/12/20 06:13:41;;;;;;;4.13;3.03;;;4.60;99.90;;;;;;5016315;28;20062;-75
2023/12/20 06:16:07;;;;;;;1.98;1.77;;;4.60;99.90;;;;;;5017321;28;20022;-75
2023/12/20 06:18:33;;;;;;;5.70;4.75;;;4.60;99.90;;;;;;5013837;28;20033;-74
2023/12/20 06:20:58;;;;;;;5.00;4.05;;;4.50;99.90;;;;;;5037860;22;20053;-34
2023/12/20 06:23:24;;;;;;;30.80;19.98;;;4.50;99.90;;;;;;5033648;28;20112;-32
2023/12/20 06:25:50;;;;;;;21.52;14.88;;;4.50;99.90;;;;;;5040431;28;20217;-29
2023/12/20 06:28:15;;;;;;;32.17;19.27;;;4.50;99.90;;;;;;5040246;28;20029;-37
2023/12/20 06:30:41;;;;;;;17.42;12.35;;;4.60;99.90;;;;;;5043141;28;20047;-38
2023/12/20 06:33:06;;;;;;;6.85;6.07;;;4.50;99.90;;;;;;5039537;28;20029;-37
2023/12/20 06:35:32;;;;;;;9.65;8.48;;;4.50;99.90;;;;;;5045250;28;20040;-37
2023/12/20 06:37:58;;;;;;;3.28;2.97;;;4.50;99.90;;;;;;5045807;28;20140;-28
2023/12/20 06:40:24;;;;;;;3.03;2.72;;;4.50;99.90;;;;;;5042835;28;20029;-29
2023/12/20 06:42:49;;;;;;;4.25;3.25;;;4.50;99.90;;;;;;5039482;28;20032;-31
2023/12/20 06:45:15;;;;;;;3.25;2.95;;;4.50;99.90;;;;;;5042915;28;20590;-30
2023/12/20 06:47:40;;;;;;;3.88;3.45;;;4.40;99.90;;;;;;5039230;28;20377;-30
2023/12/20 06:50:08;;;;;;;4.93;4.32;;;4.40;99.90;;;;;;5044919;28;20134;-28
2023/12/20 06:52:34;;;;;;;5.90;4.22;;;4.40;99.90;;;;;;5041475;28;20626;-29
2023/12/20 06:55:00;;;;;;;5.75;4.43;;;4.40;99.90;;;;;;5044909;28;20060;-31
2023/12/20 06:57:26;;;;;;;6.50;5.28;;;4.40;99.90;;;;;;5044445;28;20056;-31
2023/12/20 06:59:53;;;;;;;6.10;5.45;;;4.40;99.90;;;;;;5040403;28;20171;-28
2023/12/20 07:02:18;;;;;;;5.15;4.00;;;4.40;99.90;;;;;;5044117;28;20132;-28
2023/12/20 07:04:44;;;;;;;4.03;3.63;;;4.40;99.90;;;;;;5043721;28;20120;-31
2023/12/20 07:07:10;;;;;;;7.20;4.60;;;4.40;99.90;;;;;;5044339;28;20029;-31
2023/12/20 07:09:35;;;;;;;2.83;2.63;;;4.40;99.90;;;;;;5044294;28;20021;-30
2023/12/20 07:12:02;;;;;;;3.78;2.55;;;4.40;99.90;;;;;;5039503;28;20033;-32
2023/12/20 07:14:28;;;;;;;9.50;6.30;;;4.30;99.90;;;;;;5047361;28;20017;-28
2023/12/20 07:16:53;;;;;;;5.05;3.28;;;4.30;99.90;;;;;;5052091;28;20564;-36
2023/12/20 07:19:19;;;;;;;5.43;4.40;;;4.30;99.90;;;;;;5049639;28;20029;-31
2023/12/20 07:21:45;;;;;;;5.07;4.57;;;4.40;99.90;;;;;;5045380;28;20064;-31
2023/12/20 07:24:10;;;;;;;7.05;3.80;;;4.30;99.90;;;;;;5040044;28;20393;-29
2023/12/20 07:26:37;;;;;;;4.18;3.58;;;4.30;99.90;;;;;;5042975;28;20025;-29
2023/12/20 07:29:04;;;;;;;4.55;4.15;;;4.40;99.90;;;;;;5040585;28;20037;-30
2023/12/20 07:31:29;;;;;;;3.22;2.92;;;4.40;99.90;;;;;;5043697;28;20036;-29
2023/12/20 07:33:55;;;;;;;3.80;3.40;;;4.40;99.90;;;;;;5045199;28;20025;-34
2023/12/20 07:36:21;;;;;;;4.45;2.80;;;4.40;99.90;;;;;;5042267;28;20025;-29
2023/12/20 07:38:47;;;;;;;3.28;2.97;;;4.40;99.90;;;;;;5045381;28;20033;-35
2023/12/20 07:41:13;;;;;;;3.03;2.25;;;4.40;99.90;;;;;;5042128;28;20909;-38
2023/12/20 07:43:38;;;;;;;2.75;2.53;;;4.30;99.90;;;;;;5046876;28;20464;-38
2023/12/20 07:46:08;;;;;;;4.53;3.22;;;4.30;99.90;;;;;;5039701;28;20105;-37
2023/12/20 07:48:35;;;;;;;8.13;4.72;;;4.30;99.90;;;;;;5048730;28;20040;-31
2023/12/20 07:51:01;;;;;;;4.00;3.05;;;4.30;99.90;;;;;;5048886;28;20029;-34
2023/12/20 07:53:27;;;;;;;3.72;3.40;;;4.30;99.90;;;;;;5049162;28;20048;-34
2023/12/20 07:55:53;;;;;;;3.90;3.53;;;4.40;99.90;;;;;;5044411;28;20021;-36
2023/12/20 07:58:19;;;;;;;4.75;3.60;;;4.30;99.90;;;;;;5045522;28;20116;-32
2023/12/20 08:00:44;;;;;;;4.65;3.55;;;4.40;99.90;;;;;;5052840;28;20037;-33
2023/12/20 08:03:10;;;;;;;4.05;3.55;;;4.40;99.90;;;;;;5067221;28;20029;-33
2023/12/20 08:05:36;;;;;;;3.45;3.13;;;4.40;99.90;;;;;;5065291;28;20640;-31
2023/12/20 08:08:01;;;;;;;3.20;2.92;;;4.40;99.90;;;;;;5064711;28;20508;-33
2023/12/20 08:10:29;;;;;;;3.67;3.28;;;4.40;99.90;;;;;;5063846;28;20474;-32
2023/12/20 08:12:55;;;;;;;4.03;3.63;;;4.40;99.90;;;;;;5064300;28;20035;-37
2023/12/20 08:15:21;;;;;;;3.97;3.28;;;4.40;99.90;;;;;;5062733;28;20036;-30
2023/12/20 08:17:46;;;;;;;4.45;3.08;;;4.40;99.90;;;;;;5060025;28;20555;-33
2023/12/20 08:20:12;;;;;;;4.75;3.40;;;4.40;99.90;;;;;;5065845;28;20597;-32
2023/12/20 08:22:38;;;;;;;3.20;2.90;;;4.40;99.90;;;;;;5064887;28;20136;-36
2023/12/20 08:25:04;;;;;;;3.10;2.80;;;4.40;99.90;;;;;;5064290;28;20033;-30
2023/12/20 08:27:31;;;;;;;2.53;2.17;;;4.40;99.90;;;;;;5065511;28;20405;-32
2023/12/20 08:29:57;;;;;;;6.38;2.72;;;4.40;99.90;;;;;;5063046;28;20067;-30
2023/12/20 08:32:26;;;;;;;2.90;2.28;;;4.50;99.90;;;;;;5065946;28;20075;-31
2023/12/20 08:34:51;;;;;;;4.60;2.88;;;4.50;99.90;;;;;;5064076;28;20103;-31
2023/12/20 08:37:17;;;;;;;3.05;2.75;;;4.50;99.90;;;;;;5064825;28;20614;-32
2023/12/20 08:39:43;;;;;;;2.15;2.05;;;4.50;99.90;;;;;;5060824;28;20032;-32
2023/12/20 08:42:09;;;;;;;5.32;3.08;;;4.50;99.90;;;;;;5063802;28;20021;-31
2023/12/20 08:44:35;;;;;;;2.70;2.42;;;4.60;99.90;;;;;;5063959;28;20466;-34
2023/12/20 08:47:00;;;;;;;3.45;2.70;;;4.60;99.90;;;;;;5060778;28;20519;-34
2023/12/20 08:49:26;;;;;;;2.90;2.60;;;4.60;99.90;;;;;;5064886;28;20024;-38
2023/12/20 08:51:51;;;;;;;3.88;2.67;;;4.60;99.90;;;;;;5062121;28;20399;-39
2023/12/20 08:54:19;;;;;;;5.07;3.35;;;4.70;99.90;;;;;;5054598;28;20100;-39
2023/12/20 08:56:44;;;;;;;3.78;2.80;;;4.70;99.90;;;;;;5065072;28;20107;-36
2023/12/20 08:59:10;;;;;;;4.43;2.53;;;4.80;99.90;;;;;;5064101;28;20099;-31
2023/12/20 09:01:35;;;;;;;2.28;2.00;;;4.80;99.90;;;;;;5060626;28;20036;-32
2023/12/20 09:04:01;;;;;;;4.88;3.22;;;4.90;99.90;;;;;;5062487;28;20025;-33
2023/12/20 09:06:27;;;;;;;2.17;1.98;;;4.90;99.90;;;;;;5064522;28;20033;-31
2023/12/20 09:08:52;;;;;;;4.20;2.67;;;4.90;99.90;;;;;;5061935;28;20042;-39
2023/12/20 09:11:18;;;;;;;1.90;1.75;;;4.90;99.90;;;;;;5065705;28;20020;-37
2023/12/20 09:13:44;;;;;;;2.85;2.58;;;4.90;99.90;;;;;;5065620;28;20032;-38
2023/12/20 09:16:10;;;;;;;2.22;2.03;;;5.00;99.90;;;;;;5067179;28;20107;-34
2023/12/20 09:18:35;;;;;;;3.63;2.50;;;5.00;99.90;;;;;;5059471;28;20036;-38
2023/12/20 09:21:02;;;;;;;3.13;2.63;;;5.10;99.90;;;;;;5063847;28;20043;-35
2023/12/20 09:23:27;;;;;;;2.63;2.42;;;5.10;99.90;;;;;;5061875;28;20407;-38
2023/12/20 09:25:53;;;;;;;2.50;2.25;;;5.10;99.90;;;;;;5065701;28;20039;-37
2023/12/20 09:28:19;;;;;;;2.83;2.50;;;5.20;99.90;;;;;;5061614;28;20029;-37
2023/12/20 09:30:45;;;;;;;3.45;2.47;;;5.30;99.90;;;;;;5062074;28;20092;-36
2023/12/20 09:33:11;;;;;;;3.53;2.63;;;5.30;99.90;;;;;;5065637;28;20082;-38
2023/12/20 09:35:37;;;;;;;4.93;2.97;;;5.30;99.90;;;;;;5066499;28;20032;-36
2023/12/20 09:38:03;;;;;;;2.42;2.17;;;5.30;99.90;;;;;;5063826;28;20028;-36
2023/12/20 09:40:32;;;;;;;3.17;2.83;;;5.30;99.90;;;;;;5063613;28;20033;-38
2023/12/20 09:43:01;;;;;;;1.88;1.67;;;5.30;99.90;;;;;;5063333;28;20529;-38
2023/12/20 09:45:27;;;;;;;2.63;2.20;;;5.40;99.90;;;;;;5062874;28;20033;-36
2023/12/20 09:47:56;;;;;;;2.92;2.63;;;5.40;99.90;;;;;;5065959;28;20711;-35
2023/12/20 09:50:22;;;;;;;2.75;2.20;;;5.40;99.90;;;;;;5065289;28;20024;-38
2023/12/20 09:52:52;;;;;;;1.38;1.25;;;5.40;99.90;;;;;;5064993;28;20149;-38
2023/12/20 09:55:19;;;;;;;2.22;2.03;;;5.40;99.90;;;;;;5065609;28;20039;-35
2023/12/20 09:57:48;;;;;;;3.00;2.30;;;5.40;99.90;;;;;;5062524;28;20033;-38
2023/12/20 10:00:14;;;;;;;;;;;5.50;99.90;;;;;;5065920;28;20688;-37
2023/12/20 10:02:48;;;;;;;2.63;2.35;;;5.40;99.90;;;;;;5065342;28;19957;-35
2023/12/20 10:05:19;;;;;;;2.20;2.00;;;5.50;99.90;;;;;;5064553;28;20133;-38
2023/12/20 10:07:46;;;;;;;2.17;2.05;;;5.50;99.90;;;;;;5063136;28;20120;-38
2023/12/20 10:10:13;;;;;;;5.72;1.98;;;5.50;99.90;;;;;;5064245;28;20107;-39
2023/12/20 10:12:39;;;;;;;3.03;2.50;;;5.50;99.90;;;;;;5063150;28;20146;-40
2023/12/20 10:15:06;;;;;;;1.45;1.38;;;5.50;99.90;;;;;;5063574;28;20111;-40
2023/12/20 10:17:31;;;;;;;6.75;1.90;;;5.50;99.90;;;;;;5059128;28;20039;-35
2023/12/20 10:19:58;;;;;;;1.95;1.83;;;5.50;99.90;;;;;;5063046;28;20471;-39
2023/12/20 10:22:24;;;;;;;2.10;1.75;;;5.60;99.90;;;;;;5063639;28;20427;-39
2023/12/20 10:24:49;;;;;;;3.58;3.30;;;5.60;99.90;;;;;;5064373;28;20129;-37
2023/12/20 10:27:19;;;;;;;2.13;1.55;;;5.70;99.90;;;;;;5063460;28;20408;-37
2023/12/20 10:29:45;;;;;;;2.20;1.75;;;5.70;99.90;;;;;;5063336;28;20372;-38
2023/12/20 10:32:26;;;;;;;2.58;1.92;;;5.70;99.90;;;;;;5063206;28;20029;-38
2023/12/20 10:34:53;;;;;;;1.70;1.35;;;5.70;99.90;;;;;;5065095;28;20021;-38
2023/12/20 10:37:19;;;;;;;1.52;1.42;;;5.80;99.90;;;;;;5062401;28;20028;-37
2023/12/20 10:39:49;;;;;;;1.20;1.08;;;5.70;99.90;;;;;;5059015;28;20053;-38
2023/12/20 10:42:16;;;;;;;0.95;0.95;;;5.70;99.90;;;;;;5062800;28;20099;-35
2023/12/20 10:44:42;;;;;;;1.45;1.35;;;5.80;99.90;;;;;;5064618;28;20502;-36
2023/12/20 10:47:11;;;;;;;0.95;0.95;;;5.80;99.90;;;;;;5064311;28;20032;-38
2023/12/20 10:49:41;;;;;;;1.83;1.73;;;5.90;99.90;;;;;;5058202;28;20063;-38
2023/12/20 10:52:08;;;;;;;1.50;1.40;;;6.00;99.90;;;;;;5059471;28;20074;-37
2023/12/20 10:54:34;;;;;;;1.88;1.55;;;6.10;99.90;;;;;;5065069;28;20051;-38
2023/12/20 10:57:01;;;;;;;1.50;1.40;;;6.00;99.90;;;;;;5067627;28;20492;-38
2023/12/20 10:59:29;;;;;;;1.85;1.73;;;6.00;99.90;;;;;;5064762;28;20035;-36
2023/12/20 11:01:57;;;;;;;2.78;2.25;;;6.00;99.90;;;;;;5066031;28;20033;-36
2023/12/20 11:04:30;;;;;;;1.77;1.67;;;5.80;99.90;;;;;;5066561;28;20021;-38
2023/12/20 11:07:04;;;;;;;1.05;0.95;;;5.60;99.90;;;;;;5060968;28;20074;-38
2023/12/20 11:09:36;;;;;;;1.10;1.10;;;5.40;99.90;;;;;;5067364;28;20036;-36
2023/12/20 11:12:26;;;;;;;1.67;1.58;;;5.30;99.90;;;;;;5068541;28;20029;-33
2023/12/20 11:14:57;;;;;;;2.10;1.90;;;5.30;99.90;;;;;;5067631;28;20491;-38
2023/12/20 11:17:23;;;;;;;1.80;1.70;;;5.20;99.90;;;;;;5069316;28;20036;-34
2023/12/20 11:19:55;;;;;;;1.88;1.77;;;5.20;99.90;;;;;;5069451;28;20050;-35
2023/12/20 11:22:21;;;;;;;1.83;1.73;;;5.20;99.90;;;;;;5064896;28;20036;-38
2023/12/20 11:24:47;;;;;;;1.17;1.17;;;5.20;99.90;;;;;;5068536;28;20037;-38
2023/12/20 11:27:14;;;;;;;1.25;1.25;;;5.20;99.90;;;;;;5069569;28;20024;-34
2023/12/20 11:29:39;;;;;;;2.17;1.92;;;5.20;99.90;;;;;;5067101;28;20107;-32
2023/12/20 11:32:30;;;;;;;1.92;1.83;;;5.20;99.90;;;;;;5067838;28;20559;-32
2023/12/20 11:35:01;;;;;;;1.95;1.77;;;5.20;99.90;;;;;;5065717;28;20025;-32
2023/12/20 11:37:38;;;;;;;1.77;1.67;;;5.20;99.90;;;;;;5067305;28;20056;-32
2023/12/20 11:40:09;;;;;;;2.72;1.80;;;5.20;99.90;;;;;;5065173;28;20109;-35
2023/12/20 11:42:41;;;;;;;1.70;1.60;;;5.20;99.90;;;;;;5067987;28;20025;-34
2023/12/20 11:45:11;;;;;;;1.63;1.52;;;5.20;99.90;;;;;;5067889;28;20035;-33
2023/12/20 11:47:36;;;;;;;1.60;1.50;;;5.20;99.90;;;;;;5063099;28;20127;-32
2023/12/20 11:50:03;;;;;;;1.40;1.38;;;5.10;99.90;;;;;;5065664;28;20562;-34
2023/12/20 11:52:30;;;;;;;1.58;1.48;;;5.00;99.90;;;;;;5064318;28;20033;-33
2023/12/20 11:54:57;;;;;;;1.75;1.65;;;5.00;99.90;;;;;;5059771;28;20028;-37
2023/12/20 11:57:22;;;;;;;0.90;0.90;;;4.90;99.90;;;;;;5065318;28;20043;-35
2023/12/20 11:59:48;;;;;;;2.08;1.98;;;4.90;99.90;;;;;;5066677;28;20487;-31
2023/12/20 12:02:14;;;;;;;1.38;1.30;;;4.90;99.90;;;;;;5063453;28;20565;-31
2023/12/20 12:04:43;;;;;;;0.93;0.93;;;4.90;99.90;;;;;;5066712;28;20024;-34
2023/12/20 12:07:09;;;;;;;2.20;1.70;;;5.00;99.90;;;;;;5068589;28;20398;-30
2023/12/20 12:09:35;;;;;;;1.60;1.50;;;5.00;99.90;;;;;;5066605;28;20025;-31
2023/12/20 12:12:01;;;;;;;1.17;0.93;;;5.00;99.90;;;;;;5066817;28;20364;-32
2023/12/20 12:14:27;;;;;;;1.27;1.27;;;5.00;99.90;;;;;;5067775;28;20029;-31
2023/12/20 12:16:53;;;;;;;1.55;1.40;;;5.00;99.90;;;;;;5064504;28;20028;-32
2023/12/20 12:19:27;;;;;;;1.13;1.13;;;5.00;99.90;;;;;;5067774;28;20094;-30
2023/12/20 12:22:12;;;;;;;2.20;1.27;;;5.00;99.90;;;;;;5067731;28;20036;-31
2023/12/20 12:24:39;;;;;;;1.27;1.27;;;5.00;99.90;;;;;;5064990;28;20071;-31
2023/12/20 12:27:07;;;;;;;2.42;1.25;;;5.00;99.90;;;;;;5061180;28;20036;-34
2023/12/20 12:29:33;;;;;;;1.27;1.20;;;5.00;99.90;;;;;;5065481;28;20455;-30
2023/12/20 12:31:59;;;;;;;1.20;1.17;;;5.00;99.90;;;;;;5067094;28;20067;-32
2023/12/20 12:34:27;;;;;;;1.42;1.33;;;5.00;99.90;;;;;;5066445;28;20025;-28
2023/12/20 12:36:53;;;;;;;1.73;1.63;;;5.00;99.90;;;;;;5063495;28;20029;-31
2023/12/20 12:39:19;;;;;;;1.58;1.48;;;5.10;99.90;;;;;;5065495;28;20033;-37
2023/12/20 12:41:45;;;;;;;1.60;1.50;;;5.10;99.90;;;;;;5065528;28;20150;-33
2023/12/20 12:44:10;;;;;;;1.90;1.80;;;5.20;99.90;;;;;;5062290;28;20493;-32
2023/12/20 12:46:36;;;;;;;2.75;1.52;;;5.20;99.90;;;;;;5066267;28;20307;-33
2023/12/20 12:49:01;;;;;;;1.45;1.35;;;5.20;99.90;;;;;;5062900;28;20028;-34
2023/12/20 12:51:27;;;;;;;1.13;1.13;;;5.20;99.90;;;;;;5062652;28;20032;-34
2023/12/20 12:53:53;;;;;;;1.65;1.55;;;5.20;99.90;;;;;;5065090;28;20434;-29